Time;durP1;ratioP1;P1;durP2;ratioP2;P2;SDS_P1;SDS_P2;PMS_P1;PMS_P2;Temp;Humidity;BMP_temperature;BMP_pressure;BME280_temperature;BME280_humidity;BME280_pressure;Samples;Min_cycle;Max_cycle;Signal;HPM_P1;HPM_P2
2021/05/07 00:00:34;;;;;;;6.90;4.73;;;;;;;5.41;100.00;97118.94;3773316;77;44068;-24
2021/05/07 00:05:41;;;;;;;6.43;4.97;;;;;;;5.48;100.00;97107.94;3767887;78;69090;-23
2021/05/07 00:10:47;;;;;;;6.50;4.53;;;;;;;5.42;100.00;97115.27;3774020;78;43089;-23
2021/05/07 00:15:53;;;;;;;6.87;4.97;;;;;;;5.35;100.00;97111.58;3773520;77;44115;-23
2021/05/07 00:20:59;;;;;;;5.83;4.67;;;;;;;5.26;100.00;97120.05;3770713;77;43052;-23
2021/05/07 00:26:06;;;;;;;5.97;4.60;;;;;;;5.25;100.00;97117.86;3771409;78;44382;-24
2021/05/07 00:31:12;;;;;;;6.97;5.20;;;;;;;5.20;100.00;97137.54;3772386;77;44034;-25
2021/05/07 00:36:17;;;;;;;5.20;4.23;;;;;;;5.13;100.00;97147.16;3770387;78;42878;-22
2021/05/07 00:41:23;;;;;;;7.07;5.00;;;;;;;5.08;100.00;97159.66;3769127;77;44039;-25
2021/05/07 00:46:30;;;;;;;6.07;4.80;;;;;;;5.09;100.00;97153.32;3774057;77;43377;-23
2021/05/07 00:51:36;;;;;;;6.33;4.80;;;;;;;4.99;100.00;97150.44;3771317;78;44154;-23
2021/05/07 00:56:42;;;;;;;7.23;4.60;;;;;;;5.00;100.00;97148.11;3773591;78;43348;-23
2021/05/07 01:01:49;;;;;;;6.17;4.60;;;;;;;4.97;100.00;97159.91;3776055;77;44456;-24
2021/05/07 01:06:55;;;;;;;5.40;4.30;;;;;;;5.00;100.00;97141.44;3771304;78;44088;-23
2021/05/07 01:12:01;;;;;;;7.07;5.00;;;;;;;4.98;100.00;97139.42;3772712;77;44484;-23
2021/05/07 01:17:08;;;;;;;5.23;4.50;;;;;;;4.94;100.00;97137.05;3771883;77;43321;-24
2021/05/07 01:22:15;;;;;;;6.17;4.93;;;;;;;5.01;100.00;97137.75;3774001;77;43341;-23
2021/05/07 01:27:21;;;;;;;5.33;4.20;;;;;;;5.04;100.00;97150.30;3769570;78;43678;-23
2021/05/07 01:32:27;;;;;;;5.93;4.67;;;;;;;4.94;100.00;97169.08;3776935;77;43351;-23
2021/05/07 01:37:34;;;;;;;5.67;4.57;;;;;;;4.98;100.00;97154.09;3774433;77;43382;-23
2021/05/07 01:42:39;;;;;;;6.50;4.67;;;;;;;4.98;100.00;97166.11;3798830;78;43691;-23
2021/05/07 01:47:46;;;;;;;7.80;4.90;;;;;;;4.92;100.00;97180.41;3807464;76;43311;-23
2021/05/07 01:52:54;;;;;;;6.23;4.57;;;;;;;4.87;100.00;97176.53;3803043;76;43991;-24
2021/05/07 01:58:01;;;;;;;7.57;5.17;;;;;;;4.83;100.00;97181.34;3803791;78;43417;-24
2021/05/07 02:03:11;;;;;;;7.93;5.07;;;;;;;4.80;100.00;97188.32;3807666;76;69193;-23
2021/05/07 02:08:22;;;;;;;7.63;5.27;;;;;;;4.82;100.00;97185.01;3795951;76;26604;-24
2021/05/07 02:13:28;;;;;;;7.83;5.60;;;;;;;4.86;100.00;97181.52;3804677;77;43630;-23
2021/05/07 02:18:35;;;;;;;7.70;5.73;;;;;;;4.88;100.00;97188.37;3804316;76;43024;-23
2021/05/07 02:23:42;;;;;;;7.90;5.57;;;;;;;4.92;100.00;97179.08;3802267;76;26371;-23
2021/05/07 02:28:51;;;;;;;8.33;6.27;;;;;;;4.85;100.00;97189.19;3801753;77;26644;-23
2021/05/07 02:33:57;;;;;;;9.27;6.07;;;;;;;4.83;100.00;97190.69;3802482;76;43370;-23
2021/05/07 02:39:04;;;;;;;9.57;6.33;;;;;;;4.81;100.00;97182.00;3801402;78;43324;-21
2021/05/07 02:44:10;;;;;;;8.75;6.90;;;;;;;4.90;100.00;97186.39;3799458;77;69162;-22
2021/05/07 02:49:16;;;;;;;10.93;7.27;;;;;;;4.87;100.00;97189.39;3800536;78;43444;-22
2021/05/07 02:54:22;;;;;;;8.60;6.50;;;;;;;4.85;100.00;97194.05;3804891;76;44039;-22
2021/05/07 02:59:28;;;;;;;10.63;7.47;;;;;;;4.84;100.00;97189.70;3801388;76;75325;-22
2021/05/07 03:04:34;;;;;;;8.33;6.73;;;;;;;4.83;100.00;97190.69;3805032;76;43411;-21
2021/05/07 03:09:40;;;;;;;9.28;6.97;;;;;;;4.78;100.00;97196.49;3802327;76;70255;-20
2021/05/07 03:14:46;;;;;;;9.63;6.90;;;;;;;4.70;100.00;97203.11;3805717;76;44127;-20
2021/05/07 03:19:52;;;;;;;9.67;7.03;;;;;;;4.64;100.00;97210.38;3801789;75;43522;-21
2021/05/07 03:24:58;;;;;;;9.70;6.73;;;;;;;4.58;100.00;97217.16;3804050;78;43452;-20
2021/05/07 03:30:04;;;;;;;9.70;6.57;;;;;;;4.54;100.00;97225.12;3807452;76;44074;-20
2021/05/07 03:35:12;;;;;;;6.10;4.57;;;;;;;4.45;100.00;97234.03;3800439;78;43982;-20
2021/05/07 03:40:18;;;;;;;5.83;4.27;;;;;;;4.37;100.00;97239.30;3800956;78;43725;-21
2021/05/07 03:45:23;;;;;;;6.30;4.57;;;;;;;4.29;100.00;97236.88;3810159;76;44101;-20
2021/05/07 03:50:29;;;;;;;5.03;4.07;;;;;;;4.28;100.00;97242.37;3804082;78;69182;-20
2021/05/07 03:55:35;;;;;;;3.43;2.97;;;;;;;4.23;100.00;97246.82;3805686;78;43415;-20
2021/05/07 04:00:41;;;;;;;5.60;4.30;;;;;;;4.20;100.00;97243.11;3803743;76;44329;-21
2021/05/07 04:05:52;;;;;;;5.50;3.50;;;;;;;4.22;100.00;97258.98;3806112;77;43434;-19
2021/05/07 04:11:02;;;;;;;4.87;4.00;;;;;;;4.20;100.00;97260.44;3806057;77;43312;-19
2021/05/07 04:16:05;;;;;;;5.57;4.37;;;;;;;4.20;100.00;97272.44;3805489;76;43302;-20
2021/05/07 04:21:11;;;;;;;6.90;5.10;;;;;;;4.19;100.00;97281.42;3802783;78;43979;-20
2021/05/07 04:26:18;;;;;;;10.03;6.50;;;;;;;4.25;100.00;97279.51;3807816;76;44081;-20
2021/05/07 04:31:24;;;;;;;10.27;6.50;;;;;;;4.31;100.00;97300.22;3804406;76;43270;-19
2021/05/07 04:36:30;;;;;;;9.03;6.10;;;;;;;4.36;100.00;97309.61;3805230;77;44023;-21
2021/05/07 04:41:36;;;;;;;10.50;7.53;;;;;;;4.40;100.00;97305.67;3822056;76;43720;-19
2021/05/07 04:46:42;;;;;;;9.77;6.43;;;;;;;4.45;100.00;97314.89;3829851;76;43684;-20
2021/05/07 04:51:48;;;;;;;9.33;6.53;;;;;;;4.53;100.00;97319.97;3827039;77;44098;-20
2021/05/07 04:56:53;;;;;;;11.00;6.77;;;;;;;4.61;100.00;97324.04;3833157;76;43374;-20
2021/05/07 05:01:59;;;;;;;9.10;6.40;;;;;;;4.68;100.00;97333.61;3828479;76;44069;-20
2021/05/07 05:07:07;;;;;;;9.97;6.17;;;;;;;4.76;100.00;97333.21;3824680;76;44007;-20
2021/05/07 05:12:13;;;;;;;10.40;7.17;;;;;;;4.77;100.00;97339.38;3832407;76;43730;-21
2021/05/07 05:17:20;;;;;;;9.90;7.30;;;;;;;4.74;100.00;97344.52;3829903;77;42950;-20
2021/05/07 05:22:26;;;;;;;10.30;6.97;;;;;;;4.75;100.00;97352.88;3829722;77;43409;-20
2021/05/07 05:27:32;;;;;;;11.07;7.87;;;;;;;4.74;100.00;97359.70;3830104;76;43633;-20
2021/05/07 05:32:39;;;;;;;12.67;8.40;;;;;;;4.79;100.00;97357.41;3828630;77;44051;-20
2021/05/07 05:37:47;;;;;;;12.10;8.57;;;;;;;4.79;100.00;97370.75;3828752;76;43998;-20
2021/05/07 05:42:53;;;;;;;9.17;6.70;;;;;;;4.85;100.00;97367.50;3787321;77;43360;-20
2021/05/07 05:48:04;;;;;;;8.87;6.50;;;;;;;4.81;100.00;97371.45;3770137;78;43428;-20
2021/05/07 05:53:11;;;;;;;7.83;5.57;;;;;;;4.73;100.00;97385.53;3771206;78;44016;-20
2021/05/07 05:58:17;;;;;;;5.67;4.43;;;;;;;4.63;100.00;97402.09;3774943;77;43354;-20
2021/05/07 06:03:23;;;;;;;6.47;5.43;;;;;;;4.49;100.00;97399.44;3773831;78;43362;-21
2021/05/07 06:08:31;;;;;;;6.57;4.90;;;;;;;4.63;100.00;97401.62;3771981;77;43385;-20
2021/05/07 06:13:37;;;;;;;6.40;5.10;;;;;;;4.78;100.00;97421.10;3673554;79;43324;-20
2021/05/07 06:18:43;;;;;;;5.83;4.57;;;;;;;4.73;100.00;97424.73;3769475;78;44070;-20
2021/05/07 06:23:50;;;;;;;4.57;3.67;;;;;;;4.70;100.00;97434.36;3774263;78;43422;-22
2021/05/07 06:28:56;;;;;;;5.70;4.27;;;;;;;4.98;100.00;97439.69;3774970;77;44677;-20
2021/05/07 06:34:02;;;;;;;3.97;3.40;;;;;;;4.98;100.00;97446.36;3773621;78;44098;-20
2021/05/07 06:39:09;;;;;;;4.50;3.47;;;;;;;4.71;100.00;97464.05;3766690;78;44006;-20
2021/05/07 06:44:17;;;;;;;3.67;2.90;;;;;;;4.75;100.00;97460.11;3803962;76;44008;-20
2021/05/07 06:49:24;;;;;;;3.60;2.90;;;;;;;4.75;100.00;97478.79;3797944;77;44022;-20
2021/05/07 06:54:30;;;;;;;4.17;2.90;;;;;;;4.61;100.00;97484.09;3804213;78;43669;-20
2021/05/07 06:59:37;;;;;;;3.70;2.97;;;;;;;4.54;100.00;97491.84;3806380;76;43694;-20
2021/05/07 07:04:46;;;;;;;4.33;3.43;;;;;;;4.76;100.00;97494.64;3804082;76;44119;-22
2021/05/07 07:09:51;;;;;;;6.17;4.37;;;;;;;4.77;100.00;97502.99;3800491;76;44353;-20
2021/05/07 07:14:57;;;;;;;4.97;3.80;;;;;;;4.78;100.00;97510.49;3803148;76;43158;-20
2021/05/07 07:20:05;;;;;;;6.10;4.53;;;;;;;4.77;100.00;97518.14;3803445;78;43357;-20
2021/05/07 07:25:14;;;;;;;6.30;4.33;;;;;;;4.86;100.00;97527.97;3805579;76;43706;-20
2021/05/07 07:30:22;;;;;;;6.77;4.80;;;;;;;4.86;100.00;97521.30;3803525;78;43358;-20
2021/05/07 07:35:29;;;;;;;5.77;4.30;;;;;;;4.66;100.00;97563.69;3802255;78;44008;-20
2021/05/07 07:40:35;;;;;;;6.10;4.50;;;;;;;4.47;100.00;97552.09;3805448;76;43475;-20
2021/05/07 07:45:41;;;;;;;7.23;5.10;;;;;;;4.56;100.00;97563.23;3804032;76;44063;-20
2021/05/07 07:50:48;;;;;;;9.03;5.80;;;;;;;4.74;100.00;97575.83;3804721;78;43331;-20
2021/05/07 07:55:54;;;;;;;7.90;5.40;;;;;;;4.53;100.00;97580.84;3806522;76;44111;-20
2021/05/07 08:00:59;;;;;;;7.40;5.30;;;;;;;4.54;100.00;97589.20;3801274;77;43737;-20
2021/05/07 08:06:06;;;;;;;7.93;5.73;;;;;;;4.58;100.00;97605.78;3803796;78;44080;-20
2021/05/07 08:11:12;;;;;;;8.27;5.87;;;;;;;4.63;100.00;97614.18;3807202;76;43491;-20
2021/05/07 08:16:18;;;;;;;10.17;6.20;;;;;;;4.78;100.00;97622.56;3804466;78;44086;-22
2021/05/07 08:21:28;;;;;;;9.23;5.93;;;;;;;4.86;100.00;97632.05;3803635;76;43983;-20
2021/05/07 08:26:35;;;;;;;8.53;6.37;;;;;;;4.88;100.00;97642.56;3807106;76;44583;-21
2021/05/07 08:31:41;;;;;;;8.00;6.13;;;;;;;5.00;100.00;97658.76;3804012;78;43443;-21
2021/05/07 08:36:47;;;;;;;10.30;6.33;;;;;;;5.39;100.00;97665.78;3804603;77;43341;-20
2021/05/07 08:41:53;;;;;;;9.30;6.50;;;;;;;5.36;100.00;97680.28;3807579;76;44065;-21
2021/05/07 08:46:59;;;;;;;7.33;5.90;;;;;;;5.38;100.00;97676.12;3804806;78;44431;-20
2021/05/07 08:52:06;;;;;;;9.17;6.50;;;;;;;5.36;100.00;97684.77;3804048;76;43421;-20
2021/05/07 08:57:12;;;;;;;11.97;7.23;;;;;;;5.66;100.00;97709.55;3803599;76;43705;-21
2021/05/07 09:02:32;;;;;;;10.27;6.70;;;;;;;5.74;100.00;97709.64;3803841;78;43729;-21
2021/05/07 09:07:39;;;;;;;10.03;6.67;;;;;;;5.86;100.00;97720.99;3804759;77;43681;-21
2021/05/07 09:12:46;;;;;;;9.70;7.27;;;;;;;5.75;100.00;97712.66;3805103;76;43341;-21
2021/05/07 09:18:02;;;;;;;9.90;6.93;;;;;;;5.81;100.00;97729.47;3799351;76;42899;-21
2021/05/07 09:23:12;;;;;;;10.10;7.23;;;;;;;5.75;100.00;97728.70;3804276;78;44446;-21
2021/05/07 09:28:19;;;;;;;10.40;7.87;;;;;;;5.84;100.00;97737.67;3804348;76;43370;-21
2021/05/07 09:33:26;;;;;;;9.53;7.23;;;;;;;5.96;100.00;97744.98;3800529;76;69505;-21
2021/05/07 09:38:33;;;;;;;9.93;6.70;;;;;;;5.88;100.00;97754.25;3804884;78;44052;-21
2021/05/07 09:43:39;;;;;;;10.10;7.00;;;;;;;5.94;100.00;97753.67;3805066;76;43338;-21
2021/05/07 09:48:45;;;;;;;10.48;8.15;;;;;;;5.92;100.00;97767.68;3803283;78;43389;-21
2021/05/07 09:53:51;;;;;;;9.80;7.63;;;;;;;5.90;100.00;97779.84;3804313;76;43659;-21
2021/05/07 09:58:57;;;;;;;10.08;7.58;;;;;;;5.88;100.00;97786.33;3802201;76;75363;-21
2021/05/07 10:04:04;;;;;;;11.83;7.53;;;;;;;5.96;100.00;97797.98;3802383;78;43756;-20
2021/05/07 10:09:10;;;;;;;9.70;6.50;;;;;;;6.34;100.00;97791.27;3805611;78;43223;-21
2021/05/07 10:14:18;;;;;;;9.00;7.07;;;;;;;6.55;100.00;97788.80;3804066;76;43366;-20
2021/05/07 10:19:24;;;;;;;8.78;6.22;;;;;;;6.64;100.00;97794.61;3800709;77;43714;-20
2021/05/07 10:24:36;;;;;;;7.47;5.67;;;;;;;6.64;98.74;97807.98;3801394;78;69001;-21
2021/05/07 10:29:55;;;;;;;8.45;6.30;;;;;;;6.50;87.04;97791.11;3806705;76;43365;-21
2021/05/07 10:35:01;;;;;;;7.78;6.40;;;;;;;6.62;90.84;97797.92;3804300;76;69514;-20
2021/05/07 10:40:12;;;;;;;7.50;6.33;;;;;;;6.94;89.26;97800.05;3806972;76;44126;-21
2021/05/07 10:45:18;;;;;;;7.43;5.67;;;;;;;7.37;86.41;97798.90;3720130;79;44198;-21
2021/05/07 10:50:26;;;;;;;7.40;5.53;;;;;;;7.59;76.60;97792.67;3817784;77;43725;-21
2021/05/07 10:55:35;;;;;;;8.13;6.10;;;;;;;7.65;73.48;97809.97;3826990;76;44484;-21
2021/05/07 11:00:41;;;;;;;8.40;6.60;;;;;;;7.84;77.49;97803.55;3664630;81;43000;-20
2021/05/07 11:05:49;;;;;;;7.70;6.30;;;;;;;7.38;76.60;97815.33;3724413;78;43697;-21
2021/05/07 11:10:55;;;;;;;7.22;5.92;;;;;;;7.24;76.30;97823.91;3718737;78;70059;-20
2021/05/07 11:16:02;;;;;;;7.70;6.27;;;;;;;7.39;78.41;97819.69;3723886;79;43353;-20
2021/05/07 11:21:16;;;;;;;8.00;6.37;;;;;;;7.63;76.17;97832.09;3723987;79;43671;-21
2021/05/07 11:26:34;;;;;;;11.03;6.67;;;;;;;7.67;75.64;97828.94;3719830;78;44845;-21
2021/05/07 11:31:40;;;;;;;10.13;7.62;;;;;;;7.84;71.09;97829.03;3723181;79;43972;-21
2021/05/07 11:36:48;;;;;;;8.53;6.07;;;;;;;8.14;73.08;97816.13;3722930;78;44762;-20
2021/05/07 11:41:54;;;;;;;7.10;5.63;;;;;;;8.13;64.41;97823.83;3721190;78;43396;-21
2021/05/07 11:47:06;;;;;;;7.93;5.77;;;;;;;8.67;68.20;97828.06;3684012;80;44500;-21
2021/05/07 11:52:12;;;;;;;8.38;5.53;;;;;;;8.91;66.47;97832.16;3693497;79;43242;-21
2021/05/07 11:57:23;;;;;;;5.93;5.30;;;;;;;8.97;61.57;97833.86;3805286;76;44422;-22
2021/05/07 12:02:32;;;;;;;6.23;5.07;;;;;;;8.35;62.69;97850.58;3804501;77;44007;-20
2021/05/07 12:07:41;;;;;;;6.65;5.47;;;;;;;7.91;68.04;97866.30;3803859;76;43842;-20
2021/05/07 12:12:47;;;;;;;6.53;5.07;;;;;;;7.61;61.77;97890.38;3802455;76;44203;-20
2021/05/07 12:17:54;;;;;;;7.87;5.10;;;;;;;7.74;64.66;97896.19;3804307;78;43991;-21
2021/05/07 12:23:03;;;;;;;7.85;5.62;;;;;;;7.91;62.00;97891.78;3804332;77;43148;-21
2021/05/07 12:28:15;;;;;;;7.25;5.75;;;;;;;8.26;69.46;97899.36;3805699;76;42516;-21
2021/05/07 12:33:22;;;;;;;7.20;5.78;;;;;;;8.13;69.87;97898.95;3803778;78;43300;-21
2021/05/07 12:38:33;;;;;;;7.15;5.90;;;;;;;8.53;69.04;97900.69;3804354;78;43955;-21
2021/05/07 12:43:39;;;;;;;7.45;5.62;;;;;;;8.88;67.64;97914.41;3801910;76;43102;-21
2021/05/07 12:48:47;;;;;;;7.10;5.40;;;;;;;8.47;66.53;97912.40;3764484;78;43577;-21
2021/05/07 12:53:54;;;;;;;7.45;5.55;;;;;;;7.97;72.08;97924.66;3774905;77;44021;-22
2021/05/07 12:59:01;;;;;;;8.40;6.40;;;;;;;8.21;75.00;97916.95;3769479;77;43375;-21
2021/05/07 13:04:08;;;;;;;8.50;6.20;;;;;;;8.54;75.83;97922.00;3774780;78;43745;-21
2021/05/07 13:09:13;;;;;;;7.90;6.03;;;;;;;8.29;73.39;97921.84;3772509;78;44090;-21
2021/05/07 13:14:21;;;;;;;7.08;5.72;;;;;;;7.92;70.26;97929.67;3776133;77;44087;-21
2021/05/07 13:19:27;;;;;;;6.75;5.28;;;;;;;7.89;70.71;97924.61;3772340;77;44255;-21
2021/05/07 13:24:32;;;;;;;6.62;5.40;;;;;;;7.73;72.95;97944.59;3766075;77;44096;-21
2021/05/07 13:29:39;;;;;;;6.03;4.57;;;;;;;7.35;77.53;97963.52;3765475;77;44098;-21
2021/05/07 13:34:47;;;;;;;5.70;4.90;;;;;;;6.91;82.37;97963.73;3757342;78;43402;-20
2021/05/07 13:39:53;;;;;;;4.80;4.12;;;;;;;6.73;87.88;97996.28;3765227;77;44043;-22
2021/05/07 13:45:01;;;;;;;4.93;4.13;;;;;;;6.76;94.22;98008.05;3770666;77;43745;-22
2021/05/07 13:50:09;;;;;;;4.92;3.60;;;;;;;6.67;94.48;98019.13;3766389;78;44060;-20
2021/05/07 13:55:15;;;;;;;4.53;3.52;;;;;;;6.64;92.43;98030.16;3767282;77;64889;-20
2021/05/07 14:00:24;;;;;;;4.10;3.27;;;;;;;6.54;86.97;98030.17;3769951;77;43426;-21
2021/05/07 14:05:30;;;;;;;4.63;3.57;;;;;;;6.80;87.63;98052.28;3765498;77;44414;-20
2021/05/07 14:10:36;;;;;;;3.77;3.37;;;;;;;6.99;87.59;98043.34;3769783;77;43703;-22
2021/05/07 14:15:42;;;;;;;5.00;4.05;;;;;;;7.02;86.85;98044.36;3774302;77;69543;-20
2021/05/07 14:20:50;;;;;;;5.23;3.50;;;;;;;7.06;89.73;98051.12;3776313;77;44043;-20
2021/05/07 14:25:57;;;;;;;3.97;3.53;;;;;;;7.28;81.78;98060.25;3778352;77;64865;-22
2021/05/07 14:31:03;;;;;;;4.10;3.70;;;;;;;8.36;78.45;98047.37;3774488;78;44101;-21
2021/05/07 14:36:11;;;;;;;4.50;3.00;;;;;;;8.83;78.73;98052.89;3776398;77;44022;-21
2021/05/07 14:41:18;;;;;;;2.35;2.15;;;;;;;9.33;78.41;98070.11;3765458;77;44426;-21
2021/05/07 14:46:25;;;;;;;1.75;1.65;;;;;;;9.06;64.92;98059.91;3775493;78;44019;-21
2021/05/07 14:51:31;;;;;;;2.40;2.00;;;;;;;9.33;56.84;98073.63;3775752;77;43690;-21
2021/05/07 14:56:37;;;;;;;1.80;1.70;;;;;;;9.52;54.73;98073.05;3777007;77;43331;-21
2021/05/07 15:01:44;;;;;;;2.25;1.90;;;;;;;9.61;56.92;98075.23;3774855;78;44053;-21
2021/05/07 15:06:50;;;;;;;2.62;1.85;;;;;;;9.64;56.94;98087.02;3775220;78;43973;-21
2021/05/07 15:11:56;;;;;;;2.50;1.98;;;;;;;9.19;59.95;98092.56;3773366;76;44071;-22
2021/05/07 15:17:02;;;;;;;2.20;2.00;;;;;;;8.81;57.61;98090.66;3774330;77;44066;-21
2021/05/07 15:22:08;;;;;;;2.35;2.00;;;;;;;9.04;61.31;98092.33;3775711;77;43032;-21
2021/05/07 15:27:14;;;;;;;2.65;2.30;;;;;;;9.49;56.28;98109.14;3777337;77;43635;-22
2021/05/07 15:32:21;;;;;;;2.50;2.30;;;;;;;9.73;60.72;98104.85;3774484;78;43693;-23
2021/05/07 15:37:28;;;;;;;3.52;1.90;;;;;;;9.34;64.45;98129.09;3773378;77;43734;-22
2021/05/07 15:42:35;;;;;;;2.00;1.80;;;;;;;9.29;57.13;98139.98;3777301;77;43920;-22
2021/05/07 15:47:42;;;;;;;4.17;1.90;;;;;;;9.27;59.63;98143.32;3771582;78;43443;-22
2021/05/07 15:52:48;;;;;;;3.12;1.65;;;;;;;9.47;61.50;98151.48;3776651;77;43717;-21
2021/05/07 15:57:56;;;;;;;2.65;1.77;;;;;;;9.44;59.59;98154.52;3778241;77;44016;-22
2021/05/07 16:03:02;;;;;;;2.22;1.90;;;;;;;9.36;61.76;98151.77;3775248;78;43794;-22
2021/05/07 16:08:09;;;;;;;2.25;1.95;;;;;;;9.33;61.77;98168.23;3770998;77;44100;-21
2021/05/07 16:13:17;;;;;;;2.90;1.90;;;;;;;9.58;61.59;98171.05;3772120;77;44824;-21
2021/05/07 16:18:23;;;;;;;3.45;2.10;;;;;;;9.41;61.73;98185.75;3771551;77;44115;-22
2021/05/07 16:23:32;;;;;;;3.08;2.40;;;;;;;9.55;61.46;98186.98;3763255;78;44027;-23
2021/05/07 16:28:38;;;;;;;3.37;2.25;;;;;;;9.31;60.52;98193.09;3760803;77;43452;-23
2021/05/07 16:33:44;;;;;;;1.85;1.75;;;;;;;9.54;60.29;98206.33;3756860;77;44038;-22
2021/05/07 16:38:51;;;;;;;2.08;1.80;;;;;;;9.72;62.21;98193.28;3765758;77;43968;-22
2021/05/07 16:43:59;;;;;;;2.17;1.90;;;;;;;9.58;61.27;98219.47;3759640;77;43441;-22
2021/05/07 16:49:05;;;;;;;2.00;1.80;;;;;;;9.48;62.32;98209.64;3762719;77;44187;-21
2021/05/07 16:54:12;;;;;;;1.80;1.70;;;;;;;9.56;62.04;98216.43;3762273;77;43699;-22
2021/05/07 16:59:18;;;;;;;2.10;1.90;;;;;;;9.43;63.14;98214.67;3767140;77;43993;-22
2021/05/07 17:04:24;;;;;;;2.52;1.82;;;;;;;9.49;64.72;98214.53;3767476;77;44071;-22
2021/05/07 17:09:31;;;;;;;2.12;1.75;;;;;;;9.47;64.96;98226.77;3754302;78;44036;-22
2021/05/07 17:14:37;;;;;;;2.10;1.90;;;;;;;9.63;65.18;98234.60;3769859;77;43278;-23
2021/05/07 17:19:43;;;;;;;2.45;2.00;;;;;;;9.52;63.64;98231.70;3773669;77;44398;-22
2021/05/07 17:24:50;;;;;;;1.98;1.80;;;;;;;9.52;64.68;98242.46;3775548;77;43412;-22
2021/05/07 17:29:56;;;;;;;2.02;1.80;;;;;;;9.29;64.48;98248.33;3777558;77;43689;-23
2021/05/07 17:35:07;;;;;;;1.92;1.82;;;;;;;9.27;63.55;98252.19;3775449;77;43223;-23
2021/05/07 17:40:15;;;;;;;3.45;2.05;;;;;;;8.98;64.81;98264.08;3777238;77;43354;-22
2021/05/07 17:45:22;;;;;;;1.98;1.77;;;;;;;9.12;66.24;98272.91;3772251;78;43480;-22
2021/05/07 17:50:29;;;;;;;2.10;1.90;;;;;;;8.58;67.96;98281.00;3774979;78;44496;-22
2021/05/07 17:55:37;;;;;;;1.90;1.70;;;;;;;8.16;70.94;98287.72;3778333;77;74428;-22
2021/05/07 18:00:43;;;;;;;2.25;2.05;;;;;;;7.82;74.39;98300.37;3773923;77;43980;-22
2021/05/07 18:05:49;;;;;;;2.83;1.90;;;;;;;7.64;74.48;98301.11;3772355;77;43694;-21
2021/05/07 18:10:57;;;;;;;2.52;1.95;;;;;;;7.39;77.45;98307.45;3769359;77;43364;-22
2021/05/07 18:16:05;;;;;;;5.33;2.23;;;;;;;7.30;78.39;98308.31;3775395;77;44015;-22
2021/05/07 18:21:11;;;;;;;3.55;2.00;;;;;;;7.20;79.87;98316.35;3771024;77;43921;-22
2021/05/07 18:26:18;;;;;;;2.30;1.90;;;;;;;7.17;79.43;98315.80;3774528;78;73167;-22
2021/05/07 18:31:24;;;;;;;3.25;1.92;;;;;;;7.08;79.56;98323.71;3776893;77;43656;-22
2021/05/07 18:36:29;;;;;;;3.97;2.00;;;;;;;7.09;79.46;98328.09;3775333;77;44058;-20
2021/05/07 18:41:35;;;;;;;2.73;2.30;;;;;;;6.91;81.11;98342.67;3770927;78;43533;-22
2021/05/07 18:46:42;;;;;;;2.50;2.00;;;;;;;6.92;81.59;98351.53;3777314;77;44054;-22
2021/05/07 18:51:49;;;;;;;2.45;2.10;;;;;;;6.81;83.26;98355.68;3804032;76;43374;-20
2021/05/07 18:56:56;;;;;;;2.87;2.12;;;;;;;6.73;84.57;98364.41;3805358;78;44003;-22
2021/05/07 19:02:02;;;;;;;3.10;2.50;;;;;;;6.61;85.56;98361.84;3806216;76;43994;-20
2021/05/07 19:07:09;;;;;;;2.33;2.13;;;;;;;6.47;84.47;98381.83;3801481;76;44432;-21
2021/05/07 19:12:16;;;;;;;2.50;2.15;;;;;;;6.57;85.12;98389.03;3796975;77;43052;-21
2021/05/07 19:17:23;;;;;;;3.20;2.30;;;;;;;6.58;84.20;98401.43;3803762;76;43352;-24
2021/05/07 19:22:30;;;;;;;3.47;2.25;;;;;;;6.91;80.59;98400.25;3803421;78;43635;-20
2021/05/07 19:27:40;;;;;;;2.90;2.43;;;;;;;6.61;81.07;98402.00;3799697;78;73727;-20
2021/05/07 19:32:45;;;;;;;4.43;2.60;;;;;;;6.52;81.90;98409.52;3804172;76;44707;-21
2021/05/07 19:37:51;;;;;;;3.95;2.77;;;;;;;6.37;83.60;98419.75;3804111;77;44024;-21
2021/05/07 19:42:57;;;;;;;5.70;2.47;;;;;;;6.23;84.40;98422.78;3793780;76;44059;-20
2021/05/07 19:48:05;;;;;;;4.00;2.80;;;;;;;6.17;85.18;98422.31;3796519;76;73383;-21
2021/05/07 19:53:12;;;;;;;2.67;2.23;;;;;;;6.14;84.82;98430.63;3792873;77;42939;-21
2021/05/07 19:58:19;;;;;;;3.20;2.13;;;;;;;6.08;84.78;98436.49;3804385;77;43365;-21
2021/05/07 20:03:25;;;;;;;2.97;2.30;;;;;;;6.06;85.08;98443.80;3806023;76;44063;-21
2021/05/07 20:08:32;;;;;;;4.17;2.37;;;;;;;5.97;86.78;98442.75;3799522;77;42835;-21
2021/05/07 20:13:38;;;;;;;3.07;2.63;;;;;;;5.93;85.70;98447.16;3803964;76;43674;-21
2021/05/07 20:18:44;;;;;;;3.50;2.40;;;;;;;5.90;85.51;98444.74;3801376;76;44011;-21
2021/05/07 20:23:50;;;;;;;3.60;2.47;;;;;;;5.77;88.37;98441.77;3803707;78;44462;-21
2021/05/07 20:28:55;;;;;;;4.30;2.57;;;;;;;5.67;89.81;98440.36;3799727;77;44008;-21
2021/05/07 20:34:04;;;;;;;3.63;2.60;;;;;;;5.62;90.46;98448.41;3804259;76;44030;-21
2021/05/07 20:39:12;;;;;;;3.57;2.93;;;;;;;5.50;89.92;98446.29;3803283;77;44039;-21
2021/05/07 20:44:18;;;;;;;4.07;3.00;;;;;;;5.34;90.45;98450.73;3801951;76;44034;-20
2021/05/07 20:49:23;;;;;;;4.00;2.87;;;;;;;5.20;92.21;98449.18;3805223;76;73622;-20
2021/05/07 20:54:30;;;;;;;5.97;4.53;;;;;;;5.07;93.58;98459.53;3803459;76;44055;-22
2021/05/07 20:59:36;;;;;;;4.87;3.87;;;;;;;4.99;93.56;98464.66;3798415;77;69141;-22
2021/05/07 21:04:44;;;;;;;6.67;4.70;;;;;;;4.94;92.38;98463.70;3803970;76;43680;-20
2021/05/07 21:09:50;;;;;;;5.83;5.13;;;;;;;4.86;92.96;98460.81;3800931;78;43368;-21
2021/05/07 21:14:57;;;;;;;5.63;4.23;;;;;;;4.73;94.90;98473.45;3803313;78;44440;-22
2021/05/07 21:20:03;;;;;;;4.50;4.00;;;;;;;4.63;95.17;98474.66;3804691;76;44159;-20
2021/05/07 21:25:13;;;;;;;4.27;3.10;;;;;;;4.52;96.98;98479.53;3803284;78;43345;-22
2021/05/07 21:30:22;;;;;;;3.80;3.10;;;;;;;4.31;100.00;98482.89;3799899;78;43363;-20
2021/05/07 21:35:28;;;;;;;3.33;3.00;;;;;;;4.24;100.00;98483.02;3805831;76;43678;-21
2021/05/07 21:40:34;;;;;;;4.60;3.10;;;;;;;4.09;100.00;98497.06;3799550;77;44088;-20
2021/05/07 21:45:39;;;;;;;5.67;3.10;;;;;;;4.00;100.00;98493.75;3803615;78;44352;-20
2021/05/07 21:50:46;;;;;;;4.90;3.00;;;;;;;3.94;100.00;98500.40;3807887;76;44101;-20
2021/05/07 21:55:54;;;;;;;4.47;3.50;;;;;;;3.93;100.00;98505.39;3798754;78;43334;-22
2021/05/07 22:01:00;;;;;;;4.53;4.13;;;;;;;3.94;100.00;98500.40;3804340;78;42925;-22
2021/05/07 22:06:06;;;;;;;4.73;3.67;;;;;;;3.91;100.00;98506.45;3805948;76;43757;-21
2021/05/07 22:11:12;;;;;;;6.50;3.67;;;;;;;3.84;100.00;98505.60;3799148;76;44399;-21
2021/05/07 22:16:19;;;;;;;4.97;3.60;;;;;;;3.77;100.00;98520.34;3806767;76;43042;-21
2021/05/07 22:21:25;;;;;;;4.93;3.57;;;;;;;3.74;100.00;98513.06;3803205;76;43350;-21
2021/05/07 22:26:31;;;;;;;5.60;3.60;;;;;;;3.66;100.00;98517.63;3804034;77;44085;-21
2021/05/07 22:31:37;;;;;;;4.13;3.27;;;;;;;3.49;100.00;98517.09;3805739;76;43721;-21
2021/05/07 22:36:44;;;;;;;4.30;3.50;;;;;;;3.37;100.00;98535.31;3804104;77;43311;-21
2021/05/07 22:41:51;;;;;;;5.33;3.53;;;;;;;3.26;100.00;98538.75;3802647;76;44591;-21
2021/05/07 22:46:58;;;;;;;4.13;3.30;;;;;;;3.16;100.00;98535.92;3805205;76;43996;-20
2021/05/07 22:52:05;;;;;;;4.53;3.63;;;;;;;3.08;100.00;98540.94;3802881;78;43694;-21
2021/05/07 22:57:11;;;;;;;4.17;3.37;;;;;;;2.97;100.00;98541.73;3801031;76;43272;-21
2021/05/07 23:02:18;;;;;;;5.13;3.43;;;;;;;2.89;100.00;98536.08;3804326;76;43995;-21
2021/05/07 23:07:25;;;;;;;5.20;3.30;;;;;;;2.78;100.00;98544.35;3803377;77;43368;-20
2021/05/07 23:12:31;;;;;;;5.73;3.43;;;;;;;2.71;100.00;98540.44;3802923;78;43715;-21
2021/05/07 23:17:37;;;;;;;4.87;3.40;;;;;;;2.70;100.00;98550.70;3805251;76;43690;-20
2021/05/07 23:22:44;;;;;;;4.63;3.10;;;;;;;2.64;100.00;98548.95;3803326;77;43421;-20
2021/05/07 23:27:50;;;;;;;4.67;3.37;;;;;;;2.52;100.00;98552.84;3794711;76;43474;-21
2021/05/07 23:32:56;;;;;;;4.20;3.30;;;;;;;2.43;100.00;98551.67;3806560;76;44027;-21
2021/05/07 23:38:02;;;;;;;5.43;3.13;;;;;;;2.39;100.00;98556.84;3799644;77;43003;-20
2021/05/07 23:43:09;;;;;;;4.10;3.30;;;;;;;2.36;100.00;98554.85;3803386;77;43361;-20
2021/05/07 23:48:16;;;;;;;5.47;3.40;;;;;;;2.30;100.00;98553.47;3806156;76;43494;-21
2021/05/07 23:53:23;;;;;;;4.20;3.20;;;;;;;2.22;100.00;98553.16;3803427;77;43389;-21
2021/05/07 23:58:29;;;;;;;3.37;2.80;;;;;;;2.19;100.00;98554.69;3804271;76;43709;-23
